FIN62 RJTT-EFHK
Flight info
| Callsign | FIN62 |
|---|---|
| Flight time | N/A |
| Altitude | 37000 |
| Route | VISIP OLVAN PUTER A590 POWAL DCT OPAKE DCT NATES R338 MARCC DCT JUJXI DCT OMEKA DCT 81N120W 82N100W 82N080W 82N060W/M085F370 82N040W 81N020W 78N000W/N0479F370 DCT KOMUX DCT GITEV Y86 LUSEP |
| Aircraft | A359/H-SDE2E3GHIJ3J4J5LM1ORWXY/LB1D1 |
Departure
| Time | N/A |
|---|---|
| Airport | Tokyo Haneda International Airport (RJTT) |
Arrival
| Time | 2026-02-17 14:43 |
|---|---|
| Airport | Helsinki Vantaa Airport (EFHK) |
| Time | Latitude | Longitude | Altitude | Speed | Heading |
|---|---|---|---|---|---|
| 2026-02-17 12:20 | 77.04854 | 3.87326 | 35127 ft | 490 kts | 141° |
| 2026-02-17 12:20 | 77.02223 | 3.96957 | 35127 ft | 490 kts | 141° |
| 2026-02-17 12:21 | 76.97002 | 4.15918 | 35132 ft | 489 kts | 141° |
| 2026-02-17 12:21 | 76.91713 | 4.34925 | 35132 ft | 490 kts | 141° |
| 2026-02-17 12:22 | 76.86412 | 4.53778 | 35124 ft | 490 kts | 141° |
| 2026-02-17 12:23 | 76.79328 | 4.78665 | 35129 ft | 490 kts | 142° |
| 2026-02-17 12:23 | 76.73979 | 4.97229 | 35118 ft | 491 kts | 141° |
| 2026-02-17 12:24 | 76.68610 | 5.15666 | 35117 ft | 492 kts | 142° |
| 2026-02-17 12:24 | 76.63214 | 5.34003 | 35119 ft | 493 kts | 142° |
| 2026-02-17 12:25 | 76.57809 | 5.52181 | 35112 ft | 493 kts | 142° |
| 2026-02-17 12:25 | 76.52389 | 5.70226 | 35110 ft | 492 kts | 142° |
| 2026-02-17 12:26 | 76.46965 | 5.88100 | 35109 ft | 493 kts | 142° |
| 2026-02-17 12:26 | 76.41558 | 6.05738 | 35099 ft | 493 kts | 143° |
| 2026-02-17 12:27 | 76.33598 | 6.33380 | 35097 ft | 493 kts | 138° |
| 2026-02-17 12:27 | 76.28509 | 6.52881 | 35100 ft | 495 kts | 137° |
| 2026-02-17 12:28 | 76.23417 | 6.72416 | 35086 ft | 496 kts | 137° |
| 2026-02-17 12:28 | 76.18296 | 6.91785 | 35086 ft | 496 kts | 138° |
| 2026-02-17 12:29 | 76.13151 | 7.10965 | 35083 ft | 495 kts | 138° |
| 2026-02-17 12:29 | 76.07992 | 7.29983 | 35069 ft | 495 kts | 138° |
| 2026-02-17 12:30 | 76.02824 | 7.48838 | 35072 ft | 495 kts | 139° |
| 2026-02-17 12:31 | 75.95022 | 7.76960 | 35070 ft | 497 kts | 139° |
| 2026-02-17 12:31 | 75.89779 | 7.95624 | 35051 ft | 500 kts | 139° |
| 2026-02-17 12:32 | 75.84553 | 8.14041 | 35052 ft | 498 kts | 139° |
| 2026-02-17 12:32 | 75.79281 | 8.32437 | 35050 ft | 499 kts | 139° |
| 2026-02-17 12:33 | 75.74000 | 8.50682 | 35035 ft | 497 kts | 139° |
| 2026-02-17 12:33 | 75.68713 | 8.68767 | 35037 ft | 498 kts | 140° |
| 2026-02-17 12:34 | 75.63399 | 8.86769 | 35039 ft | 498 kts | 140° |
| 2026-02-17 12:34 | 75.58069 | 9.04648 | 35022 ft | 500 kts | 140° |
| 2026-02-17 12:35 | 75.50020 | 9.31324 | 35023 ft | 500 kts | 140° |
| 2026-02-17 12:35 | 75.44636 | 9.48949 | 35009 ft | 501 kts | 140° |
| 2026-02-17 12:36 | 75.39252 | 9.66406 | 35009 ft | 498 kts | 140° |
| 2026-02-17 12:36 | 75.33855 | 9.83734 | 35011 ft | 501 kts | 140° |
| 2026-02-17 12:37 | 75.28440 | 10.00957 | 35014 ft | 501 kts | 140° |
| 2026-02-17 12:37 | 75.22986 | 10.18142 | 34999 ft | 503 kts | 141° |
| 2026-02-17 12:38 | 75.17555 | 10.35091 | 34998 ft | 502 kts | 141° |
| 2026-02-17 12:39 | 75.09332 | 10.60450 | 34987 ft | 501 kts | 141° |
| 2026-02-17 12:39 | 75.03859 | 10.77130 | 34988 ft | 501 kts | 141° |
| 2026-02-17 12:40 | 74.98359 | 10.93736 | 34989 ft | 503 kts | 141° |
| 2026-02-17 12:40 | 74.92840 | 11.10248 | 34973 ft | 502 kts | 141° |
| 2026-02-17 12:41 | 74.87299 | 11.26668 | 34978 ft | 504 kts | 141° |
| 2026-02-17 12:41 | 74.81732 | 11.43015 | 34976 ft | 504 kts | 141° |
| 2026-02-17 12:42 | 74.76194 | 11.59128 | 34961 ft | 505 kts | 142° |
| 2026-02-17 12:42 | 74.70617 | 11.75206 | 34963 ft | 501 kts | 142° |
| 2026-02-17 12:43 | 74.62289 | 11.98933 | 34963 ft | 501 kts | 142° |
| 2026-02-17 12:43 | 74.56688 | 12.14714 | 34963 ft | 502 kts | 142° |
| 2026-02-17 12:44 | 74.51083 | 12.30365 | 34966 ft | 504 kts | 142° |
| 2026-02-17 12:44 | 74.45453 | 12.45947 | 34965 ft | 503 kts | 143° |
| 2026-02-17 12:45 | 74.39821 | 12.61392 | 34944 ft | 501 kts | 143° |
| 2026-02-17 12:45 | 74.34216 | 12.76628 | 34951 ft | 503 kts | 143° |
| 2026-02-17 12:46 | 74.28571 | 12.91836 | 34949 ft | 501 kts | 143° |
| 2026-02-17 12:47 | 74.20115 | 13.14363 | 34933 ft | 502 kts | 143° |
| 2026-02-17 12:47 | 74.14445 | 13.29308 | 34932 ft | 502 kts | 143° |
| 2026-02-17 12:48 | 74.08765 | 13.44148 | 34934 ft | 504 kts | 143° |
| 2026-02-17 12:48 | 74.03033 | 13.58989 | 34918 ft | 507 kts | 144° |
| 2026-02-17 12:49 | 73.97284 | 13.73748 | 34916 ft | 505 kts | 144° |
| 2026-02-17 12:49 | 73.91529 | 13.88395 | 34917 ft | 507 kts | 144° |
| 2026-02-17 12:50 | 73.85788 | 14.02876 | 34939 ft | 503 kts | 144° |
| 2026-02-17 12:50 | 73.82925 | 14.10051 | 35180 ft | 501 kts | 144° |
| 2026-02-17 12:50 | 73.80108 | 14.17079 | 35431 ft | 499 kts | 144° |
| 2026-02-17 12:51 | 73.74405 | 14.31222 | 35949 ft | 499 kts | 145° |
| 2026-02-17 12:51 | 73.71550 | 14.38257 | 36203 ft | 497 kts | 145° |
| 2026-02-17 12:51 | 73.68700 | 14.45253 | 36478 ft | 497 kts | 145° |
| 2026-02-17 12:51 | 73.65852 | 14.52211 | 36740 ft | 497 kts | 145° |
| 2026-02-17 12:52 | 73.62993 | 14.59169 | 36983 ft | 499 kts | 145° |
| 2026-02-17 12:52 | 73.60127 | 14.66115 | 37250 ft | 500 kts | 145° |
| 2026-02-17 12:52 | 73.57250 | 14.73058 | 37500 ft | 500 kts | 145° |
| 2026-02-17 12:52 | 73.54378 | 14.79958 | 37740 ft | 499 kts | 146° |
| 2026-02-17 12:53 | 73.51512 | 14.86817 | 37995 ft | 498 kts | 146° |
| 2026-02-17 12:53 | 73.48642 | 14.93656 | 38250 ft | 498 kts | 146° |
| 2026-02-17 12:53 | 73.45771 | 15.00471 | 38531 ft | 497 kts | 146° |
| 2026-02-17 12:53 | 73.42901 | 15.07254 | 38740 ft | 496 kts | 146° |
| 2026-02-17 12:54 | 73.40042 | 15.13983 | 38857 ft | 497 kts | 146° |
| 2026-02-17 12:54 | 73.37164 | 15.20728 | 38856 ft | 498 kts | 146° |
| 2026-02-17 12:55 | 73.28522 | 15.40819 | 38856 ft | 502 kts | 146° |
| 2026-02-17 12:55 | 73.22710 | 15.54193 | 38857 ft | 502 kts | 146° |
| 2026-02-17 12:56 | 73.16858 | 15.67549 | 38844 ft | 505 kts | 146° |
| 2026-02-17 12:56 | 73.10979 | 15.80857 | 38850 ft | 505 kts | 147° |
| 2026-02-17 12:57 | 73.05138 | 15.93969 | 38851 ft | 502 kts | 147° |
| 2026-02-17 12:57 | 72.99276 | 16.07024 | 38837 ft | 503 kts | 147° |
| 2026-02-17 12:58 | 72.93417 | 16.19964 | 38837 ft | 501 kts | 147° |
| 2026-02-17 12:58 | 72.87566 | 16.32786 | 38837 ft | 499 kts | 147° |
| 2026-02-17 12:59 | 72.78742 | 16.51928 | 38828 ft | 504 kts | 147° |
| 2026-02-17 12:59 | 72.72835 | 16.64615 | 38832 ft | 503 kts | 147° |
| 2026-02-17 13:00 | 72.66904 | 16.77253 | 38820 ft | 506 kts | 148° |
| 2026-02-17 13:00 | 72.60982 | 16.89771 | 38826 ft | 506 kts | 148° |
| 2026-02-17 13:01 | 72.55035 | 17.02245 | 38818 ft | 503 kts | 148° |
| 2026-02-17 13:01 | 72.49110 | 17.14571 | 38806 ft | 503 kts | 148° |
| 2026-02-17 13:02 | 72.43169 | 17.26833 | 38813 ft | 502 kts | 148° |
| 2026-02-17 13:03 | 72.34241 | 17.45084 | 38812 ft | 503 kts | 148° |
| 2026-02-17 13:03 | 72.28273 | 17.57168 | 38804 ft | 505 kts | 149° |
| 2026-02-17 13:04 | 72.22282 | 17.69202 | 38797 ft | 503 kts | 149° |
| 2026-02-17 13:04 | 72.16291 | 17.81145 | 38800 ft | 505 kts | 149° |
| 2026-02-17 13:05 | 72.10273 | 17.93052 | 38792 ft | 507 kts | 149° |
| 2026-02-17 13:05 | 72.04247 | 18.04880 | 38793 ft | 505 kts | 149° |
| 2026-02-17 13:06 | 71.98224 | 18.16615 | 38797 ft | 505 kts | 149° |
| 2026-02-17 13:06 | 71.92179 | 18.28300 | 38782 ft | 507 kts | 149° |
| 2026-02-17 13:07 | 71.83144 | 18.45598 | 38785 ft | 503 kts | 149° |
| 2026-02-17 13:07 | 71.77155 | 18.56955 | 38775 ft | 504 kts | 150° |
| 2026-02-17 13:08 | 71.71099 | 18.68349 | 38774 ft | 507 kts | 150° |
| 2026-02-17 13:08 | 71.65040 | 18.79687 | 38773 ft | 504 kts | 150° |
| 2026-02-17 13:09 | 71.58948 | 18.90983 | 38769 ft | 508 kts | 150° |
| 2026-02-17 13:09 | 71.52846 | 19.02217 | 38766 ft | 509 kts | 151° |
| 2026-02-17 13:10 | 71.46714 | 19.13421 | 38773 ft | 508 kts | 150° |
| 2026-02-17 13:11 | 71.38586 | 19.28145 | 38759 ft | 508 kts | 151° |
| 2026-02-17 13:11 | 71.32464 | 19.39141 | 38763 ft | 507 kts | 151° |
| 2026-02-17 13:12 | 71.26354 | 19.50031 | 38760 ft | 504 kts | 151° |
| 2026-02-17 13:12 | 71.20267 | 19.60812 | 38753 ft | 504 kts | 151° |
| 2026-02-17 13:13 | 71.14139 | 19.71573 | 38757 ft | 509 kts | 152° |
| 2026-02-17 13:13 | 71.08021 | 19.82245 | 38757 ft | 507 kts | 152° |
| 2026-02-17 13:14 | 71.01870 | 19.92894 | 38748 ft | 508 kts | 152° |
| 2026-02-17 13:14 | 70.95677 | 20.03534 | 38752 ft | 512 kts | 152° |
| 2026-02-17 13:15 | 70.86361 | 20.19408 | 38741 ft | 510 kts | 152° |
| 2026-02-17 13:15 | 70.80177 | 20.29851 | 38749 ft | 508 kts | 153° |
| 2026-02-17 13:16 | 70.73985 | 20.40224 | 38747 ft | 509 kts | 152° |
| 2026-02-17 13:16 | 70.67800 | 20.50522 | 38742 ft | 506 kts | 152° |
| 2026-02-17 13:17 | 70.61626 | 20.60727 | 38737 ft | 506 kts | 152° |
| 2026-02-17 13:17 | 70.55451 | 20.70861 | 38738 ft | 505 kts | 153° |
| 2026-02-17 13:18 | 70.49296 | 20.80889 | 38726 ft | 507 kts | 152° |
| 2026-02-17 13:19 | 70.39996 | 20.95916 | 38721 ft | 507 kts | 153° |
| 2026-02-17 13:19 | 70.33790 | 21.05852 | 38724 ft | 507 kts | 153° |
| 2026-02-17 13:20 | 70.27583 | 21.15722 | 38721 ft | 505 kts | 153° |
| 2026-02-17 13:20 | 70.21394 | 21.25501 | 38722 ft | 504 kts | 153° |
| 2026-02-17 13:21 | 70.15194 | 21.35228 | 38720 ft | 504 kts | 153° |
| 2026-02-17 13:21 | 70.09041 | 21.44814 | 38721 ft | 504 kts | 153° |
| 2026-02-17 13:22 | 70.02840 | 21.54409 | 38733 ft | 504 kts | 153° |
| 2026-02-17 13:22 | 69.96634 | 21.63949 | 38726 ft | 505 kts | 153° |
| 2026-02-17 13:23 | 69.87290 | 21.78189 | 38726 ft | 506 kts | 154° |
| 2026-02-17 13:23 | 69.81044 | 21.87629 | 38749 ft | 506 kts | 154° |
| 2026-02-17 13:24 | 69.74795 | 21.97010 | 38753 ft | 506 kts | 154° |
| 2026-02-17 13:24 | 69.68534 | 22.06346 | 38771 ft | 507 kts | 154° |
| 2026-02-17 13:25 | 69.62272 | 22.15620 | 38779 ft | 506 kts | 154° |
| 2026-02-17 13:25 | 69.56008 | 22.24836 | 38777 ft | 505 kts | 154° |
| 2026-02-17 13:26 | 69.49753 | 22.33978 | 38796 ft | 505 kts | 154° |
| 2026-02-17 13:27 | 69.40406 | 22.47529 | 38801 ft | 504 kts | 154° |
| 2026-02-17 13:27 | 69.34141 | 22.56536 | 38812 ft | 504 kts | 154° |
| 2026-02-17 13:28 | 69.27876 | 22.65486 | 38810 ft | 504 kts | 154° |
| 2026-02-17 13:28 | 69.21606 | 22.74383 | 38825 ft | 504 kts | 155° |
| 2026-02-17 13:29 | 69.15328 | 22.83235 | 38829 ft | 505 kts | 155° |
| 2026-02-17 13:29 | 69.09042 | 22.92040 | 38825 ft | 505 kts | 155° |
| 2026-02-17 13:30 | 69.02789 | 23.00744 | 38836 ft | 505 kts | 155° |
| 2026-02-17 13:30 | 68.96494 | 23.09450 | 38842 ft | 505 kts | 155° |
| 2026-02-17 13:31 | 68.87053 | 23.22403 | 38843 ft | 505 kts | 155° |
| 2026-02-17 13:31 | 68.80750 | 23.30981 | 38843 ft | 505 kts | 155° |
| 2026-02-17 13:32 | 68.74443 | 23.39510 | 38843 ft | 505 kts | 155° |
| 2026-02-17 13:32 | 68.68129 | 23.47994 | 38836 ft | 505 kts | 155° |
| 2026-02-17 13:33 | 68.61807 | 23.56436 | 38831 ft | 505 kts | 155° |
| 2026-02-17 13:33 | 68.55477 | 23.64836 | 38826 ft | 505 kts | 155° |
| 2026-02-17 13:34 | 68.49143 | 23.73189 | 38823 ft | 505 kts | 156° |
| 2026-02-17 13:35 | 68.39682 | 23.85568 | 38820 ft | 505 kts | 156° |
| 2026-02-17 13:35 | 68.33337 | 23.93805 | 38822 ft | 506 kts | 156° |
| 2026-02-17 13:36 | 68.26982 | 24.02004 | 38819 ft | 506 kts | 156° |
| 2026-02-17 13:36 | 68.20617 | 24.10166 | 38815 ft | 506 kts | 156° |
| 2026-02-17 13:37 | 68.14255 | 24.18274 | 38812 ft | 506 kts | 156° |
| 2026-02-17 13:37 | 68.07887 | 24.26340 | 38802 ft | 506 kts | 156° |
| 2026-02-17 13:38 | 68.01515 | 24.34361 | 38812 ft | 507 kts | 156° |
| 2026-02-17 13:38 | 67.95125 | 24.42355 | 38787 ft | 507 kts | 156° |
| 2026-02-17 13:39 | 67.85522 | 24.54279 | 38754 ft | 508 kts | 156° |
| 2026-02-17 13:39 | 67.79155 | 24.62124 | 38733 ft | 508 kts | 157° |
| 2026-02-17 13:40 | 67.72742 | 24.69979 | 38717 ft | 508 kts | 157° |
| 2026-02-17 13:40 | 67.66325 | 24.77790 | 38717 ft | 508 kts | 157° |
| 2026-02-17 13:41 | 67.60001 | 24.86025 | 38716 ft | 509 kts | 152° |
| 2026-02-17 13:41 | 67.53812 | 24.95034 | 38743 ft | 508 kts | 157° |
| 2026-02-17 13:42 | 67.47111 | 25.00356 | 38800 ft | 502 kts | 174° |
| 2026-02-17 13:43 | 67.36732 | 25.01956 | 38788 ft | 500 kts | 181° |
| 2026-02-17 13:43 | 67.29736 | 25.02295 | 38794 ft | 500 kts | 181° |
| 2026-02-17 13:44 | 67.22828 | 25.02751 | 38784 ft | 499 kts | 181° |
| 2026-02-17 13:44 | 67.15880 | 25.03323 | 38803 ft | 499 kts | 180° |
| 2026-02-17 13:45 | 67.08940 | 25.03928 | 38789 ft | 499 kts | 180° |
| 2026-02-17 13:45 | 67.02010 | 25.04529 | 38790 ft | 499 kts | 180° |
| 2026-02-17 13:46 | 66.95072 | 25.05122 | 38792 ft | 499 kts | 180° |
| 2026-02-17 13:46 | 66.88133 | 25.05708 | 38775 ft | 499 kts | 180° |
| 2026-02-17 13:47 | 66.77733 | 25.06581 | 38796 ft | 498 kts | 180° |
| 2026-02-17 13:47 | 66.70797 | 25.07158 | 38801 ft | 498 kts | 180° |
| 2026-02-17 13:48 | 66.63872 | 25.07732 | 38799 ft | 498 kts | 180° |
| 2026-02-17 13:48 | 66.56939 | 25.08302 | 38799 ft | 498 kts | 180° |
| 2026-02-17 13:49 | 66.50009 | 25.08870 | 38791 ft | 498 kts | 180° |
| 2026-02-17 13:49 | 66.43086 | 25.09434 | 38804 ft | 498 kts | 180° |
| 2026-02-17 13:50 | 66.36164 | 25.09995 | 38804 ft | 498 kts | 180° |
| 2026-02-17 13:51 | 66.25817 | 25.10829 | 38802 ft | 497 kts | 180° |
| 2026-02-17 13:51 | 66.18895 | 25.11382 | 38804 ft | 498 kts | 181° |
| 2026-02-17 13:52 | 66.11966 | 25.11932 | 38808 ft | 497 kts | 181° |
| 2026-02-17 13:52 | 66.05042 | 25.12480 | 38809 ft | 497 kts | 181° |
| 2026-02-17 13:53 | 65.98176 | 25.13019 | 38806 ft | 497 kts | 181° |
| 2026-02-17 13:53 | 65.91266 | 25.13559 | 38808 ft | 497 kts | 181° |
| 2026-02-17 13:54 | 65.84348 | 25.14097 | 38812 ft | 497 kts | 181° |
| 2026-02-17 13:54 | 65.77429 | 25.14632 | 38812 ft | 497 kts | 181° |
| 2026-02-17 13:55 | 65.67047 | 25.15430 | 38816 ft | 497 kts | 181° |
| 2026-02-17 13:55 | 65.60130 | 25.15958 | 38820 ft | 497 kts | 181° |
| 2026-02-17 13:56 | 65.53217 | 25.16483 | 38829 ft | 497 kts | 181° |
| 2026-02-17 13:56 | 65.46345 | 25.17002 | 38831 ft | 497 kts | 181° |
| 2026-02-17 13:57 | 65.39434 | 25.17523 | 38845 ft | 497 kts | 181° |
| 2026-02-17 13:57 | 65.32524 | 25.18037 | 38845 ft | 497 kts | 181° |
| 2026-02-17 13:58 | 65.25609 | 25.18551 | 38851 ft | 497 kts | 181° |
| 2026-02-17 13:59 | 65.15242 | 25.19316 | 38853 ft | 497 kts | 181° |
| 2026-02-17 13:59 | 65.08323 | 25.19827 | 38845 ft | 497 kts | 181° |
| 2026-02-17 14:00 | 65.01442 | 25.20325 | 38864 ft | 497 kts | 181° |
| 2026-02-17 14:00 | 64.94535 | 25.20825 | 38865 ft | 497 kts | 181° |
| 2026-02-17 14:01 | 64.87631 | 25.21330 | 38871 ft | 497 kts | 181° |
| 2026-02-17 14:01 | 64.80722 | 25.21825 | 38875 ft | 497 kts | 181° |
| 2026-02-17 14:02 | 64.73811 | 25.22318 | 38871 ft | 496 kts | 181° |
| 2026-02-17 14:02 | 64.68078 | 25.22726 | 38884 ft | 495 kts | 181° |
| 2026-02-17 14:03 | 64.57744 | 25.23458 | 38892 ft | 495 kts | 181° |
| 2026-02-17 14:03 | 64.50851 | 25.23943 | 38900 ft | 495 kts | 181° |
| 2026-02-17 14:04 | 64.43964 | 25.24424 | 38911 ft | 495 kts | 181° |
| 2026-02-17 14:04 | 64.37079 | 25.24903 | 38909 ft | 495 kts | 181° |
| 2026-02-17 14:05 | 64.30200 | 25.25380 | 38920 ft | 494 kts | 181° |
| 2026-02-17 14:05 | 64.23322 | 25.25854 | 38922 ft | 494 kts | 181° |
| 2026-02-17 14:06 | 64.16448 | 25.26325 | 38939 ft | 494 kts | 181° |
| 2026-02-17 14:07 | 64.06108 | 25.27029 | 38937 ft | 495 kts | 181° |
| 2026-02-17 14:07 | 63.99266 | 25.27493 | 38949 ft | 495 kts | 181° |
| 2026-02-17 14:08 | 63.92386 | 25.27957 | 38950 ft | 494 kts | 181° |
| 2026-02-17 14:08 | 63.85508 | 25.28418 | 38958 ft | 494 kts | 181° |
| 2026-02-17 14:09 | 63.78628 | 25.28877 | 38961 ft | 494 kts | 181° |
| 2026-02-17 14:09 | 63.71738 | 25.29334 | 38971 ft | 495 kts | 181° |
| 2026-02-17 14:10 | 63.64865 | 25.29789 | 38965 ft | 494 kts | 181° |
| 2026-02-17 14:10 | 63.57994 | 25.30241 | 38979 ft | 494 kts | 181° |
| 2026-02-17 14:11 | 63.47697 | 25.30914 | 38977 ft | 494 kts | 181° |
| 2026-02-17 14:11 | 63.40871 | 25.31357 | 38993 ft | 494 kts | 181° |
| 2026-02-17 14:12 | 63.34000 | 25.31801 | 38986 ft | 494 kts | 181° |
| 2026-02-17 14:12 | 63.27138 | 25.32244 | 38998 ft | 493 kts | 181° |
| 2026-02-17 14:13 | 63.20281 | 25.32683 | 39014 ft | 493 kts | 181° |
| 2026-02-17 14:13 | 63.13425 | 25.33119 | 39013 ft | 493 kts | 181° |
| 2026-02-17 14:14 | 63.06574 | 25.33553 | 39017 ft | 493 kts | 181° |
| 2026-02-17 14:15 | 62.96285 | 25.34202 | 39023 ft | 493 kts | 181° |
| 2026-02-17 14:15 | 62.89428 | 25.34633 | 39034 ft | 493 kts | 181° |
| 2026-02-17 14:16 | 62.82570 | 25.35061 | 39031 ft | 493 kts | 181° |
| 2026-02-17 14:16 | 62.75709 | 25.35275 | 39039 ft | 492 kts | 184° |
| 2026-02-17 14:17 | 62.68866 | 25.34836 | 39042 ft | 492 kts | 185° |
| 2026-02-17 14:17 | 62.62025 | 25.34336 | 39045 ft | 491 kts | 185° |
| 2026-02-17 14:18 | 62.55235 | 25.33938 | 39035 ft | 491 kts | 184° |
| 2026-02-17 14:18 | 62.48408 | 25.33605 | 39029 ft | 491 kts | 184° |
| 2026-02-17 14:19 | 62.38159 | 25.33118 | 39028 ft | 491 kts | 184° |
| 2026-02-17 14:19 | 62.31328 | 25.32790 | 39033 ft | 491 kts | 184° |
| 2026-02-17 14:20 | 62.24496 | 25.32463 | 39039 ft | 491 kts | 184° |
| 2026-02-17 14:20 | 62.17664 | 25.32138 | 39049 ft | 491 kts | 184° |
| 2026-02-17 14:21 | 62.10836 | 25.31816 | 38947 ft | 490 kts | 184° |
| 2026-02-17 14:21 | 62.07467 | 25.31658 | 38593 ft | 490 kts | 184° |
| 2026-02-17 14:21 | 62.04016 | 25.31494 | 37990 ft | 491 kts | 184° |
| 2026-02-17 14:22 | 62.00636 | 25.31330 | 37429 ft | 493 kts | 184° |
| 2026-02-17 14:22 | 61.93792 | 25.31011 | 36342 ft | 487 kts | 184° |
| 2026-02-17 14:23 | 61.87106 | 25.30705 | 35307 ft | 474 kts | 184° |
| 2026-02-17 14:23 | 61.83822 | 25.30552 | 34801 ft | 469 kts | 184° |
| 2026-02-17 14:23 | 61.80577 | 25.30400 | 34296 ft | 464 kts | 184° |
| 2026-02-17 14:23 | 61.77364 | 25.30249 | 33766 ft | 460 kts | 184° |
| 2026-02-17 14:24 | 61.74173 | 25.30100 | 33191 ft | 456 kts | 184° |
| 2026-02-17 14:24 | 61.71004 | 25.29953 | 32624 ft | 452 kts | 184° |
| 2026-02-17 14:24 | 61.67877 | 25.29807 | 32054 ft | 448 kts | 184° |
| 2026-02-17 14:24 | 61.64777 | 25.29663 | 31512 ft | 444 kts | 184° |
| 2026-02-17 14:25 | 61.61699 | 25.29522 | 30980 ft | 441 kts | 184° |
| 2026-02-17 14:25 | 61.58643 | 25.29388 | 30446 ft | 437 kts | 184° |
| 2026-02-17 14:25 | 61.55611 | 25.29247 | 29919 ft | 434 kts | 184° |
| 2026-02-17 14:25 | 61.52608 | 25.29104 | 29307 ft | 430 kts | 184° |
| 2026-02-17 14:26 | 61.49663 | 25.28962 | 28725 ft | 426 kts | 184° |
| 2026-02-17 14:26 | 61.46716 | 25.28822 | 28156 ft | 422 kts | 184° |
| 2026-02-17 14:26 | 61.43800 | 25.28684 | 27595 ft | 418 kts | 184° |
| 2026-02-17 14:27 | 61.38049 | 25.28416 | 26471 ft | 409 kts | 184° |
| 2026-02-17 14:27 | 61.35211 | 25.28282 | 25948 ft | 405 kts | 183° |
| 2026-02-17 14:27 | 61.32404 | 25.28151 | 25425 ft | 402 kts | 183° |
| 2026-02-17 14:27 | 61.29611 | 25.28021 | 24910 ft | 399 kts | 183° |
| 2026-02-17 14:28 | 61.26854 | 25.27894 | 24412 ft | 396 kts | 183° |
| 2026-02-17 14:28 | 61.24106 | 25.27770 | 23918 ft | 393 kts | 182° |
| 2026-02-17 14:28 | 61.21385 | 25.27647 | 23387 ft | 390 kts | 182° |
| 2026-02-17 14:28 | 61.18684 | 25.27525 | 22798 ft | 386 kts | 182° |
| 2026-02-17 14:29 | 61.16014 | 25.27406 | 22247 ft | 382 kts | 182° |
| 2026-02-17 14:29 | 61.13372 | 25.27287 | 21690 ft | 378 kts | 182° |
| 2026-02-17 14:29 | 61.10757 | 25.27170 | 21123 ft | 374 kts | 182° |
| 2026-02-17 14:29 | 61.08166 | 25.27054 | 20556 ft | 370 kts | 182° |
| 2026-02-17 14:30 | 61.05601 | 25.26938 | 20001 ft | 367 kts | 182° |
| 2026-02-17 14:30 | 61.03063 | 25.26823 | 19445 ft | 361 kts | 182° |
| 2026-02-17 14:31 | 60.96051 | 25.26518 | 17708 ft | 317 kts | 183° |
| 2026-02-17 14:31 | 60.93880 | 25.26459 | 17082 ft | 307 kts | 181° |
| 2026-02-17 14:31 | 60.91798 | 25.26591 | 16472 ft | 298 kts | 180° |
| 2026-02-17 14:31 | 60.89753 | 25.26766 | 15876 ft | 291 kts | 180° |
| 2026-02-17 14:32 | 60.87746 | 25.26927 | 15356 ft | 288 kts | 181° |
| 2026-02-17 14:32 | 60.85728 | 25.27072 | 14898 ft | 292 kts | 181° |
| 2026-02-17 14:32 | 60.83703 | 25.27212 | 14467 ft | 290 kts | 181° |
| 2026-02-17 14:32 | 60.81694 | 25.27353 | 14039 ft | 287 kts | 181° |
| 2026-02-17 14:33 | 60.79713 | 25.27487 | 13574 ft | 284 kts | 181° |
| 2026-02-17 14:33 | 60.75822 | 25.27737 | 12529 ft | 277 kts | 182° |
| 2026-02-17 14:33 | 60.73903 | 25.27858 | 12020 ft | 275 kts | 182° |
| 2026-02-17 14:34 | 60.72010 | 25.27973 | 11487 ft | 266 kts | 181° |
| 2026-02-17 14:34 | 60.70188 | 25.27671 | 10992 ft | 261 kts | 195° |
| 2026-02-17 14:34 | 60.68589 | 25.26133 | 10503 ft | 259 kts | 217° |
| 2026-02-17 14:35 | 60.66247 | 25.20661 | 9676 ft | 253 kts | 230° |
| 2026-02-17 14:35 | 60.65185 | 25.17834 | 9240 ft | 249 kts | 230° |
| 2026-02-17 14:35 | 60.64131 | 25.15053 | 8832 ft | 246 kts | 230° |
| 2026-02-17 14:35 | 60.63084 | 25.12317 | 8424 ft | 243 kts | 230° |
| 2026-02-17 14:36 | 60.62049 | 25.09629 | 8007 ft | 240 kts | 230° |
| 2026-02-17 14:36 | 60.60960 | 25.07078 | 7609 ft | 236 kts | 223° |
| 2026-02-17 14:36 | 60.59705 | 25.04939 | 7225 ft | 234 kts | 217° |
| 2026-02-17 14:36 | 60.58413 | 25.02948 | 6830 ft | 232 kts | 217° |
| 2026-02-17 14:37 | 60.57122 | 25.00986 | 6438 ft | 231 kts | 217° |
| 2026-02-17 14:37 | 60.55859 | 24.99062 | 6035 ft | 229 kts | 217° |
| 2026-02-17 14:37 | 60.54570 | 24.97093 | 5613 ft | 228 kts | 217° |
| 2026-02-17 14:37 | 60.53335 | 24.95205 | 5205 ft | 220 kts | 217° |
| 2026-02-17 14:38 | 60.52136 | 24.93372 | 4795 ft | 211 kts | 217° |
| 2026-02-17 14:38 | 60.50986 | 24.91614 | 4375 ft | 203 kts | 217° |
| 2026-02-17 14:38 | 60.49877 | 24.89921 | 3951 ft | 196 kts | 217° |
| 2026-02-17 14:39 | 60.47772 | 24.86705 | 3338 ft | 187 kts | 217° |
| 2026-02-17 14:39 | 60.46726 | 24.85143 | 3014 ft | 186 kts | 214° |
| 2026-02-17 14:39 | 60.45563 | 24.84235 | 2714 ft | 177 kts | 188° |
| 2026-02-17 14:39 | 60.44369 | 24.84557 | 2541 ft | 174 kts | 161° |
| 2026-02-17 14:40 | 60.43315 | 24.85789 | 2427 ft | 175 kts | 152° |
| 2026-02-17 14:40 | 60.42292 | 24.86992 | 2358 ft | 163 kts | 156° |
| 2026-02-17 14:40 | 60.40367 | 24.88908 | 1979 ft | 145 kts | 157° |
| 2026-02-17 14:41 | 60.39493 | 24.89819 | 1765 ft | 137 kts | 157° |
| 2026-02-17 14:41 | 60.38673 | 24.90660 | 1551 ft | 127 kts | 158° |
| 2026-02-17 14:41 | 60.37909 | 24.91444 | 1383 ft | 122 kts | 157° |
| 2026-02-17 14:41 | 60.37255 | 24.92114 | 1221 ft | 122 kts | 157° |
| 2026-02-17 14:42 | 60.36501 | 24.92889 | 1025 ft | 121 kts | 156° |
| 2026-02-17 14:42 | 60.35762 | 24.93653 | 829 ft | 120 kts | 156° |
| 2026-02-17 14:42 | 60.35024 | 24.94419 | 671 ft | 119 kts | 155° |
| 2026-02-17 14:43 | 60.33544 | 24.95944 | 322 ft | 118 kts | 155° |
| 2026-02-17 14:43 | 60.32810 | 24.96693 | 208 ft | 116 kts | 155° |
| 2026-02-17 14:43 | 60.32165 | 24.97337 | 161 ft | 78 kts | 153° |
| 2026-02-17 14:43 | 60.31907 | 24.97601 | 159 ft | 26 kts | 153° |
| 2026-02-17 14:44 | 60.31761 | 24.97748 | 158 ft | 6 kts | 161° |
| 2026-02-17 14:44 | 60.31717 | 24.97747 | 159 ft | 8 kts | 198° |
| 2026-02-17 14:44 | 60.31671 | 24.97618 | 161 ft | 11 kts | 244° |
| 2026-02-17 14:44 | 60.31660 | 24.97559 | 163 ft | 3 kts | 265° |
| 2026-02-17 14:45 | 60.31674 | 24.97514 | 165 ft | 10 kts | 311° |
| 2026-02-17 14:45 | 60.31767 | 24.97406 | 166 ft | 19 kts | 334° |
| 2026-02-17 14:45 | 60.31895 | 24.97274 | 168 ft | 21 kts | 332° |
| 2026-02-17 14:45 | 60.32017 | 24.97148 | 171 ft | 22 kts | 333° |
| 2026-02-17 14:46 | 60.32156 | 24.97002 | 172 ft | 22 kts | 333° |
| 2026-02-17 14:46 | 60.32236 | 24.96867 | 171 ft | 10 kts | 271° |
| 2026-02-17 14:46 | 60.32187 | 24.96731 | 173 ft | 14 kts | 226° |
| 2026-02-17 14:47 | 60.32024 | 24.96373 | 173 ft | 20 kts | 227° |
| 2026-02-17 14:47 | 60.31927 | 24.96161 | 173 ft | 21 kts | 225° |
| 2026-02-17 14:47 | 60.31824 | 24.96105 | 173 ft | 12 kts | 217° |
| 2026-02-17 14:47 | 60.31753 | 24.95957 | 173 ft | 17 kts | 228° |
| 2026-02-17 14:48 | 60.31667 | 24.95766 | 173 ft | 20 kts | 226° |
| 2026-02-17 14:48 | 60.31570 | 24.95613 | 173 ft | 17 kts | 226° |
| 2026-02-17 14:48 | 60.31506 | 24.95471 | 173 ft | 14 kts | 228° |
| 2026-02-17 14:48 | 60.31475 | 24.95401 | 173 ft | 8 kts | 227° |
| 2026-02-17 14:49 | 60.31422 | 24.95287 | 173 ft | 14 kts | 227° |
| 2026-02-17 14:49 | 60.31353 | 24.95188 | 173 ft | 12 kts | 176° |
| 2026-02-17 14:49 | 60.31278 | 24.95306 | 173 ft | 14 kts | 136° |
| 2026-02-17 14:49 | 60.31217 | 24.95420 | 172 ft | 5 kts | 137° |
| 2026-02-17 14:50 | 60.31203 | 24.95445 | 172 ft | 6 kts | 137° |
| 2026-02-17 14:50 | 60.31165 | 24.95551 | 173 ft | 11 kts | 97° |
| 2026-02-17 14:50 | 60.31191 | 24.95657 | 173 ft | 15 kts | 52° |
| 2026-02-17 14:51 | 60.31290 | 24.95827 | 173 ft | 4 kts | 339° |
| 2026-02-17 14:51 | 60.31311 | 24.95789 | 173 ft | 5 kts | 318° |
| 2026-02-17 14:51 | 60.31320 | 24.95772 | 173 ft | 1 kts | 318° |
| 2026-02-17 14:51 | 60.31329 | 24.95755 | 173 ft | 2 kts | 317° |
| 2026-02-17 14:52 | 60.31336 | 24.95743 | 173 ft | 0 kts | 317° |